createdAt,value
2018-12-15T00:02:29.646Z,99882.62
2018-12-15T00:05:36.430Z,99893.28
2018-12-15T00:08:41.185Z,99889.63
2018-12-15T00:11:45.938Z,99889.19
2018-12-15T00:14:50.720Z,99895.70
2018-12-15T00:17:55.453Z,99890.41
2018-12-15T00:21:00.180Z,99888.23
2018-12-15T00:24:04.913Z,99889.48
2018-12-15T00:27:09.725Z,99886.84
2018-12-15T00:30:14.870Z,99887.66
2018-12-15T00:33:19.761Z,99897.27
2018-12-15T00:36:24.518Z,99896.61
2018-12-15T00:39:29.240Z,99899.41
2018-12-15T00:42:34.873Z,99902.46
2018-12-15T00:45:39.600Z,99886.59
2018-12-15T00:48:44.350Z,99893.91
2018-12-15T00:51:49.103Z,99900.41
2018-12-15T00:54:53.825Z,99890.51
2018-12-15T00:57:58.563Z,99893.42
2018-12-15T01:01:03.368Z,99892.32
2018-12-15T01:04:09.163Z,99894.72
2018-12-15T01:07:13.957Z,99893.56
2018-12-15T01:10:18.810Z,99893.09
2018-12-15T01:13:23.593Z,99885.74
2018-12-15T01:16:28.346Z,99880.40
2018-12-15T01:19:34.147Z,99875.12
2018-12-15T01:22:38.895Z,99876.26
2018-12-15T01:25:43.621Z,99880.64
2018-12-15T01:28:48.355Z,99885.73
2018-12-15T01:31:53.135Z,99886.11
2018-12-15T01:34:57.883Z,99889.14
2018-12-15T01:38:02.575Z,99886.41
2018-12-15T01:41:07.304Z,99874.93
2018-12-15T01:44:12.093Z,99873.66
2018-12-15T01:47:16.833Z,99861.66
2018-12-15T01:50:21.556Z,99857.70
2018-12-15T01:53:26.438Z,99864.88
2018-12-15T01:56:31.276Z,99860.38
2018-12-15T01:59:36.014Z,99855.91
2018-12-15T02:02:40.851Z,99860.75
2018-12-15T02:05:45.552Z,99849.10
2018-12-15T02:08:50.832Z,99850.02
2018-12-15T02:11:57.609Z,99842.44
2018-12-15T02:15:02.368Z,99851.30
2018-12-15T02:18:08.166Z,99842.70
2018-12-15T02:21:12.938Z,99840.84
2018-12-15T02:24:17.753Z,99844.82
2018-12-15T02:27:22.493Z,99840.15
2018-12-15T02:30:27.239Z,99842.44
2018-12-15T02:33:31.955Z,99840.70
2018-12-15T02:36:36.785Z,99842.31
2018-12-15T02:39:41.557Z,99846.42
2018-12-15T02:42:46.301Z,99853.57
2018-12-15T02:45:51.049Z,99848.80
2018-12-15T02:48:55.795Z,99851.61
2018-12-15T02:52:00.542Z,99845.05
2018-12-15T02:55:05.421Z,99839.24
2018-12-15T02:58:10.167Z,99827.13
2018-12-15T03:01:15.260Z,99840.27
2018-12-15T03:04:20.022Z,99848.01
2018-12-15T03:07:24.951Z,99849.09
2018-12-15T03:10:29.672Z,99844.03
2018-12-15T03:13:34.427Z,99845.59
2018-12-15T03:16:43.439Z,99848.25
2018-12-15T03:19:48.177Z,99853.39
2018-12-15T03:22:52.873Z,99850.08
2018-12-15T03:25:58.094Z,99850.63
2018-12-15T03:29:02.895Z,99847.33
2018-12-15T03:32:07.656Z,99850.52
2018-12-15T03:35:12.530Z,99851.59
2018-12-15T03:38:17.253Z,99851.36
2018-12-15T03:41:21.989Z,99854.36
2018-12-15T03:44:26.893Z,99851.77
2018-12-15T03:47:31.625Z,99848.66
2018-12-15T03:50:36.471Z,99846.33
2018-12-15T03:53:41.209Z,99846.63
2018-12-15T03:56:45.942Z,99846.86
2018-12-15T03:59:50.944Z,99850.47
2018-12-15T04:02:55.648Z,99849.82
2018-12-15T04:06:00.392Z,99851.95
2018-12-15T04:09:06.958Z,99854.59
2018-12-15T04:12:12.773Z,99856.72
2018-12-15T04:15:17.526Z,99858.08
2018-12-15T04:18:22.255Z,99859.22
2018-12-15T04:21:27.012Z,99853.71
2018-12-15T04:24:31.714Z,99858.81
2018-12-15T04:27:36.466Z,99856.59
2018-12-15T04:30:43.258Z,99851.45
2018-12-15T04:33:47.963Z,99859.92
2018-12-15T04:36:52.703Z,99853.98
2018-12-15T04:39:57.423Z,99846.98
2018-12-15T04:43:02.485Z,99857.70
2018-12-15T04:46:07.198Z,99856.55
2018-12-15T04:49:11.917Z,99842.31
2018-12-15T04:52:16.714Z,99845.31
2018-12-15T04:55:21.607Z,99847.41
2018-12-15T04:58:26.354Z,99841.42
2018-12-15T05:01:31.121Z,99847.87
2018-12-15T05:04:36.184Z,99853.04
2018-12-15T05:07:40.910Z,99848.63
2018-12-15T05:10:46.715Z,99853.95
2018-12-15T05:13:51.452Z,99848.33
2018-12-15T05:16:56.204Z,99846.91
2018-12-15T05:20:01.015Z,99843.77
2018-12-15T05:23:05.781Z,99844.20
2018-12-15T05:26:10.533Z,99840.63
2018-12-15T05:29:15.236Z,99832.07
2018-12-15T05:32:19.952Z,99836.91
2018-12-15T05:35:24.805Z,99845.52
2018-12-15T05:38:29.523Z,99835.13
2018-12-15T05:41:34.316Z,99833.16
2018-12-15T05:44:39.031Z,99837.66
2018-12-15T05:47:43.811Z,99838.84
2018-12-15T05:50:48.545Z,99835.27
2018-12-15T05:53:53.263Z,99832.67
2018-12-15T05:56:58.167Z,99840.75
2018-12-15T06:00:03.009Z,99838.83
2018-12-15T06:03:07.929Z,99833.66
2018-12-15T06:06:12.685Z,99836.25
2018-12-15T06:09:17.421Z,99841.30
2018-12-15T06:12:22.164Z,99833.90
2018-12-15T06:15:26.972Z,99834.69
2018-12-15T06:18:31.993Z,99849.87
2018-12-15T06:21:36.811Z,99839.84
2018-12-15T06:24:41.565Z,99832.46
2018-12-15T06:27:46.311Z,99832.87
2018-12-15T06:30:51.048Z,99834.45
2018-12-15T06:33:55.861Z,99836.03
2018-12-15T06:37:00.614Z,99839.03
2018-12-15T06:40:06.509Z,99841.95
2018-12-15T06:43:11.277Z,99852.20
2018-12-15T06:46:16.018Z,99854.73
2018-12-15T06:49:20.722Z,99864.37
2018-12-15T06:52:25.476Z,99857.38
2018-12-15T06:55:30.209Z,99857.67
2018-12-15T06:58:35.005Z,99860.99
2018-12-15T07:01:39.744Z,99862.43
2018-12-15T07:04:44.448Z,99848.26
2018-12-15T07:07:49.206Z,99847.46
2018-12-15T07:10:54.032Z,99855.94
2018-12-15T07:13:58.758Z,99859.97
2018-12-15T07:17:03.486Z,99852.39
2018-12-15T07:20:08.282Z,99860.20
2018-12-15T07:23:13.102Z,99862.20
2018-12-15T07:26:17.866Z,99854.06
2018-12-15T07:29:22.661Z,99854.42
2018-12-15T07:32:27.451Z,99854.98
2018-12-15T07:35:32.298Z,99854.98
2018-12-15T07:41:53.777Z,99855.05
2018-12-15T07:44:58.548Z,99857.57
2018-12-15T07:48:03.285Z,99850.39
2018-12-15T07:51:08.045Z,99860.06
2018-12-15T07:54:12.787Z,99860.73
2018-12-15T07:57:17.557Z,99859.57
2018-12-15T08:00:22.361Z,99863.36
2018-12-15T08:03:27.137Z,99861.50
2018-12-15T08:06:31.947Z,99860.67
2018-12-15T08:09:36.741Z,99856.21
2018-12-15T08:12:43.480Z,99862.66
2018-12-15T08:15:48.219Z,99866.26
2018-12-15T08:18:57.989Z,99866.59
2018-12-15T08:21:59.797Z,99866.78
2018-12-15T08:25:04.912Z,99866.95
2018-12-15T08:28:09.665Z,99870.85
2018-12-15T08:31:14.477Z,99879.56
2018-12-15T08:34:19.217Z,99886.25
2018-12-15T08:37:23.985Z,99883.00
2018-12-15T08:40:28.738Z,99878.53
2018-12-15T08:43:33.733Z,99880.77
2018-12-15T08:46:38.481Z,99883.59
2018-12-15T08:49:43.289Z,99880.30
2018-12-15T08:52:48.090Z,99879.37
2018-12-15T08:55:52.830Z,99876.91
2018-12-15T08:58:57.713Z,99870.75
2018-12-15T09:02:02.448Z,99859.30
2018-12-15T09:05:07.255Z,99859.97
2018-12-15T09:08:12.017Z,99857.73
2018-12-15T09:11:16.924Z,99848.91
2018-12-15T09:14:21.681Z,99843.90
2018-12-15T09:17:26.486Z,99836.30
2018-12-15T09:20:31.293Z,99838.30
2018-12-15T09:23:36.048Z,99830.05
2018-12-15T09:26:40.813Z,99827.59
2018-12-15T09:29:45.601Z,99816.13
2018-12-15T09:32:50.373Z,99813.52
2018-12-15T09:35:55.294Z,99815.18
2018-12-15T09:39:01.106Z,99816.12
2018-12-15T09:42:07.910Z,99820.38
2018-12-15T09:45:13.773Z,99810.23
2018-12-15T09:48:18.539Z,99814.22
2018-12-15T09:51:23.281Z,99807.48
2018-12-15T09:54:28.125Z,99796.52
2018-12-15T09:57:33.004Z,99805.15
2018-12-15T10:00:37.784Z,99809.73
2018-12-15T10:03:42.599Z,99799.47
2018-12-15T10:06:47.345Z,99800.30
2018-12-15T10:09:52.109Z,99792.59
2018-12-15T10:12:56.874Z,99795.80
2018-12-15T10:16:01.630Z,99784.00
2018-12-15T10:19:06.474Z,99783.66
2018-12-15T10:22:11.619Z,99780.72
2018-12-15T10:25:16.377Z,99789.08
2018-12-15T10:28:21.110Z,99786.48
2018-12-15T10:31:31.080Z,99773.41
2018-12-15T10:34:35.864Z,99778.45
2018-12-15T10:37:40.698Z,99770.31
2018-12-15T10:40:45.424Z,99753.68
2018-12-15T10:43:50.364Z,99752.70
2018-12-15T10:46:55.164Z,99742.93
2018-12-15T10:50:01.979Z,99743.71
2018-12-15T10:53:08.783Z,99740.30
2018-12-15T10:56:15.578Z,99726.96
2018-12-15T10:59:20.449Z,99733.15
2018-12-15T11:02:26.627Z,99736.98
2018-12-15T11:05:31.513Z,99735.69
2018-12-15T11:08:36.459Z,99746.00
2018-12-15T11:11:41.259Z,99730.38
2018-12-15T11:14:47.405Z,99727.73
2018-12-15T11:17:52.202Z,99734.11
2018-12-15T11:20:56.958Z,99736.58
2018-12-15T11:24:01.884Z,99738.48
2018-12-15T11:27:08.142Z,99721.14
2018-12-15T11:30:13.061Z,99718.76
2018-12-15T11:33:17.933Z,99708.86
2018-12-15T11:36:22.814Z,99702.84
2018-12-15T11:39:27.679Z,99693.16
2018-12-15T11:42:32.429Z,99710.27
2018-12-15T11:45:37.169Z,99719.13
2018-12-15T11:48:42.060Z,99718.64
2018-12-15T11:51:46.843Z,99704.78
2018-12-15T11:54:51.621Z,99712.22
2018-12-15T11:57:56.373Z,99714.66
2018-12-15T12:01:01.403Z,99722.45
2018-12-15T12:04:08.188Z,99721.73
2018-12-15T12:07:14.063Z,99715.05
2018-12-15T12:10:18.832Z,99711.23
2018-12-15T12:13:23.774Z,99723.47
2018-12-15T12:16:28.641Z,99724.86
2018-12-15T12:19:33.373Z,99705.74
2018-12-15T12:22:38.091Z,99692.27
2018-12-15T12:25:44.895Z,99689.18
2018-12-15T12:28:51.673Z,99688.93
2018-12-15T12:31:56.439Z,99698.42
2018-12-15T12:35:01.192Z,99699.07
2018-12-15T12:38:07.992Z,99692.83
2018-12-15T12:41:12.777Z,99689.18
2018-12-15T12:44:18.553Z,99690.09
2018-12-15T12:47:23.314Z,99680.05
2018-12-15T12:50:28.981Z,99677.77
2018-12-15T12:53:34.267Z,99685.75
2018-12-15T12:56:39.555Z,99698.84
2018-12-15T12:59:44.740Z,99695.89
2018-12-15T13:02:49.949Z,99674.56
2018-12-15T13:05:55.177Z,99684.45
2018-12-15T13:08:59.951Z,99669.12
2018-12-15T13:12:04.677Z,99668.62
2018-12-15T13:15:09.464Z,99656.19
2018-12-15T13:18:14.178Z,99649.44
2018-12-15T13:21:18.962Z,99647.83
2018-12-15T13:24:23.683Z,99646.70
2018-12-15T13:27:28.439Z,99644.23
2018-12-15T13:30:33.188Z,99640.28
2018-12-15T13:33:37.982Z,99633.66
2018-12-15T13:36:42.773Z,99639.50
2018-12-15T13:39:47.494Z,99637.81
2018-12-15T13:42:52.250Z,99645.80
2018-12-15T13:45:57.045Z,99649.88
2018-12-15T13:49:01.805Z,99647.31
2018-12-15T13:52:08.203Z,99658.89
2018-12-15T13:55:13.411Z,99664.50
2018-12-15T13:58:18.124Z,99669.91
2018-12-15T14:01:22.874Z,99660.88
2018-12-15T14:04:28.120Z,99652.05
2018-12-15T14:07:32.870Z,99662.89
2018-12-15T14:10:37.618Z,99660.52
2018-12-15T14:13:43.468Z,99659.83
2018-12-15T14:16:48.182Z,99653.17
2018-12-15T14:19:52.948Z,99665.08
2018-12-15T14:22:57.712Z,99673.02
2018-12-15T14:26:05.561Z,99671.38
2018-12-15T14:29:10.335Z,99668.83
2018-12-15T14:32:15.049Z,99675.63
2018-12-15T14:35:19.790Z,99664.86
2018-12-15T14:38:24.659Z,99657.07
2018-12-15T14:41:29.390Z,99644.86
2018-12-15T14:44:34.154Z,99656.45
2018-12-15T14:47:38.893Z,99673.87
2018-12-15T14:50:43.619Z,99676.16
2018-12-15T14:53:48.421Z,99672.30
2018-12-15T14:56:53.248Z,99669.33
2018-12-15T14:59:58.002Z,99674.64
2018-12-15T15:03:02.793Z,99672.73
2018-12-15T15:06:07.555Z,99677.16
2018-12-15T15:09:12.332Z,99679.50
2018-12-15T15:12:17.113Z,99677.16
2018-12-15T15:15:21.861Z,99664.02
2018-12-15T15:18:26.629Z,99649.80
2018-12-15T15:21:31.474Z,99650.56
2018-12-15T15:24:36.186Z,99659.77
2018-12-15T15:27:40.952Z,99652.94
2018-12-15T15:30:46.052Z,99650.93
2018-12-15T15:33:50.821Z,99658.91
2018-12-15T15:36:55.592Z,99654.79
2018-12-15T15:40:00.518Z,99651.93
2018-12-15T15:43:05.289Z,99657.26
2018-12-15T15:46:10.067Z,99649.63
2018-12-15T15:49:14.799Z,99655.23
2018-12-15T15:52:19.621Z,99662.56
2018-12-15T15:55:24.389Z,99659.91
2018-12-15T15:58:29.291Z,99651.52
2018-12-15T16:01:34.090Z,99653.59
2018-12-15T16:04:39.098Z,99645.52
2018-12-15T16:07:43.883Z,99646.84
2018-12-15T16:10:48.654Z,99656.02
2018-12-15T16:13:53.441Z,99667.77
2018-12-15T16:16:58.486Z,99666.98
2018-12-15T16:20:03.390Z,99661.41
2018-12-15T16:23:08.108Z,99644.27
2018-12-15T16:26:12.858Z,99636.54
2018-12-15T16:29:24.068Z,99636.55
2018-12-15T16:32:28.804Z,99637.92
2018-12-15T16:35:33.638Z,99643.09
2018-12-15T16:38:38.396Z,99649.60
2018-12-15T16:41:43.151Z,99656.81
2018-12-15T16:44:47.878Z,99646.66
2018-12-15T16:47:52.688Z,99653.95
2018-12-15T16:50:57.437Z,99645.99
2018-12-15T16:54:03.360Z,99640.41
2018-12-15T16:57:08.192Z,99646.16
2018-12-15T17:00:15.183Z,99626.93
2018-12-15T17:03:20.202Z,99623.64
2018-12-15T17:06:25.008Z,99628.25
2018-12-15T17:09:29.765Z,99639.16
2018-12-15T17:12:34.625Z,99648.44
2018-12-15T17:15:39.385Z,99642.84
2018-12-15T17:18:45.930Z,99647.59
2018-12-15T17:21:50.890Z,99653.34
2018-12-15T17:24:55.870Z,99641.34
2018-12-15T17:28:00.834Z,99641.27
2018-12-15T17:31:06.090Z,99654.17
2018-12-15T17:34:10.886Z,99666.45
2018-12-15T17:37:15.882Z,99653.16
2018-12-15T17:40:21.044Z,99659.11
2018-12-15T17:43:26.245Z,99676.30
2018-12-15T17:46:31.957Z,99670.02
2018-12-15T17:49:36.772Z,99662.51
2018-12-15T17:52:41.544Z,99658.13
2018-12-15T17:55:47.525Z,99645.26
2018-12-15T17:58:52.298Z,99650.60
2018-12-15T18:01:57.082Z,99653.75
2018-12-15T18:05:01.855Z,99640.04
2018-12-15T18:08:07.723Z,99625.38
2018-12-15T18:11:12.505Z,99622.14
2018-12-15T18:14:19.370Z,99636.72
2018-12-15T18:17:24.150Z,99627.98
2018-12-15T18:20:28.915Z,99639.41
2018-12-15T18:23:33.929Z,99636.88
2018-12-15T18:26:38.710Z,99623.89
2018-12-15T18:29:43.715Z,99626.53
2018-12-15T18:32:48.486Z,99625.35
2018-12-15T18:35:53.557Z,99637.80
2018-12-15T18:38:58.326Z,99640.68
2018-12-15T18:42:03.134Z,99633.00
2018-12-15T18:45:08.398Z,99628.67
2018-12-15T18:48:13.177Z,99640.40
2018-12-15T18:51:18.235Z,99656.52
2018-12-15T18:54:23.218Z,99627.05
2018-12-15T18:57:28.060Z,99614.22
2018-12-15T19:00:32.878Z,99623.19
2018-12-15T19:03:37.829Z,99627.13
2018-12-15T19:06:42.626Z,99630.83
2018-12-15T19:09:47.444Z,99633.22
2018-12-15T19:12:52.351Z,99627.88
2018-12-15T19:15:57.187Z,99628.37
2018-12-15T19:19:01.994Z,99620.27
2018-12-15T19:22:06.973Z,99638.08
2018-12-15T19:25:12.253Z,99635.44
2018-12-15T19:28:17.270Z,99622.25
2018-12-15T19:31:22.028Z,99611.59
2018-12-15T19:34:26.811Z,99619.22
2018-12-15T19:37:32.867Z,99636.78
2018-12-15T19:40:37.645Z,99629.39
2018-12-15T19:43:42.553Z,99628.02
2018-12-15T19:46:47.357Z,99632.83
2018-12-15T19:49:52.131Z,99628.92
2018-12-15T19:52:57.925Z,99620.80
2018-12-15T19:56:02.694Z,99617.11
2018-12-15T19:59:09.711Z,99618.27
2018-12-15T20:02:14.489Z,99608.84
2018-12-15T20:05:19.306Z,99610.36
2018-12-15T20:08:24.093Z,99602.56
2018-12-15T20:11:28.889Z,99607.39
2018-12-15T20:14:33.666Z,99600.86
2018-12-15T20:17:38.612Z,99603.92
2018-12-15T20:20:43.381Z,99602.23
2018-12-15T20:23:48.132Z,99602.56
2018-12-15T20:26:52.942Z,99601.72
2018-12-15T20:29:57.743Z,99612.22
2018-12-15T20:33:02.545Z,99610.81
2018-12-15T20:36:07.315Z,99604.57
2018-12-15T20:39:12.086Z,99607.39
2018-12-15T20:42:16.857Z,99615.14
2018-12-15T20:45:21.670Z,99612.91
2018-12-15T20:48:26.409Z,99616.44
2018-12-15T20:51:31.206Z,99607.31
2018-12-15T20:54:35.969Z,99596.13
2018-12-15T20:57:40.700Z,99588.16
2018-12-15T21:00:45.471Z,99586.72
2018-12-15T21:03:50.193Z,99575.02
2018-12-15T21:06:54.971Z,99567.78
2018-12-15T21:09:59.738Z,99571.49
2018-12-15T21:13:04.658Z,99581.05
2018-12-15T21:16:09.581Z,99584.02
2018-12-15T21:19:14.329Z,99582.92
2018-12-15T21:22:20.457Z,99584.05
2018-12-15T21:25:25.389Z,99576.08
2018-12-15T21:28:30.306Z,99572.98
2018-12-15T21:31:35.090Z,99566.95
2018-12-15T21:34:39.845Z,99586.65
2018-12-15T21:37:44.643Z,99575.53
2018-12-15T21:40:49.394Z,99583.69
2018-12-15T21:43:54.134Z,99570.95
2018-12-15T21:46:58.906Z,99565.37
2018-12-15T21:50:03.824Z,99566.05
2018-12-15T21:53:08.600Z,99574.62
2018-12-15T21:56:13.345Z,99569.75
2018-12-15T21:59:18.113Z,99561.92
2018-12-15T22:02:22.852Z,99566.91
2018-12-15T22:05:27.646Z,99563.38
2018-12-15T22:08:32.474Z,99572.11
2018-12-15T22:11:37.213Z,99577.20
2018-12-15T22:14:42.183Z,99567.19
2018-12-15T22:17:46.971Z,99562.33
2018-12-15T22:20:52.034Z,99565.87
2018-12-15T22:23:56.847Z,99568.81
2018-12-15T22:27:01.574Z,99560.64
2018-12-15T22:30:07.429Z,99560.02
2018-12-15T22:33:12.190Z,99555.23
2018-12-15T22:36:16.942Z,99553.42
2018-12-15T22:39:21.667Z,99558.72
2018-12-15T22:42:26.422Z,99560.44
2018-12-15T22:45:31.312Z,99556.42
2018-12-15T22:48:36.075Z,99552.48
2018-12-15T22:51:40.949Z,99552.78
2018-12-15T22:54:45.701Z,99549.37
2018-12-15T22:57:50.478Z,99532.38
2018-12-15T23:01:01.376Z,99526.50
2018-12-15T23:04:08.159Z,99528.91
2018-12-15T23:07:12.914Z,99533.27
2018-12-15T23:10:17.653Z,99523.72
2018-12-15T23:13:22.394Z,99527.23
2018-12-15T23:16:27.317Z,99538.88
2018-12-15T23:19:32.043Z,99536.96
2018-12-15T23:22:36.794Z,99540.27
2018-12-15T23:25:41.534Z,99535.24
2018-12-15T23:28:48.196Z,99528.94
2018-12-15T23:31:52.927Z,99519.34
2018-12-15T23:34:57.688Z,99523.55
2018-12-15T23:38:02.455Z,99524.11
2018-12-15T23:41:07.225Z,99521.81
2018-12-15T23:44:11.960Z,99515.13
2018-12-15T23:47:16.722Z,99507.13
2018-12-15T23:50:21.782Z,99513.16
2018-12-15T23:53:26.543Z,99510.16
2018-12-15T23:56:31.280Z,99509.76
2018-12-15T23:59:36.042Z,99508.48
